Time;durP1;ratioP1;P1;durP2;ratioP2;P2;SDS_P1;SDS_P2;PMS_P1;PMS_P2;Temp;Humidity;BMP_temperature;BMP_pressure;BME280_temperature;BME280_humidity;BME280_pressure;Samples;Min_cycle;Max_cycle;Signal;HPM_P1;HPM_P2
2024/03/01 00:02:10;;;;;;;131.73;123.95;;;9.00;99.90;;;;;;5096932;28;20044;-79
2024/03/01 00:04:36;;;;;;;167.10;157.45;;;9.00;99.90;;;;;;5097717;28;20032;-80
2024/03/01 00:07:04;;;;;;;138.00;130.13;;;9.10;99.90;;;;;;5113952;28;20031;-79
2024/03/01 00:09:30;;;;;;;97.10;91.28;;;9.00;99.90;;;;;;5097413;27;20043;-79
2024/03/01 00:11:56;;;;;;;145.73;137.88;;;9.00;99.90;;;;;;5088704;28;20032;-79
2024/03/01 00:14:22;;;;;;;149.93;140.60;;;9.00;99.90;;;;;;5101306;28;20482;-79
2024/03/01 00:16:48;;;;;;;168.85;159.48;;;8.90;99.90;;;;;;5110356;28;20051;-79
2024/03/01 00:19:14;;;;;;;138.25;130.60;;;8.90;99.90;;;;;;5097432;28;20394;-80
2024/03/01 00:21:40;;;;;;;132.18;124.40;;;8.80;99.90;;;;;;5095120;28;20032;-79
2024/03/01 00:24:07;;;;;;;129.55;122.18;;;8.80;99.90;;;;;;5094117;28;20049;-79
2024/03/01 00:26:33;;;;;;;148.82;140.32;;;8.80;99.90;;;;;;5089945;28;20032;-80
2024/03/01 00:28:59;;;;;;;167.40;158.20;;;8.70;99.90;;;;;;5084208;28;20382;-79
2024/03/01 00:31:26;;;;;;;174.85;164.88;;;8.70;99.90;;;;;;5092794;28;20032;-79
2024/03/01 00:33:52;;;;;;;180.88;170.43;;;8.70;99.90;;;;;;5093130;28;20032;-79
2024/03/01 00:36:19;;;;;;;192.32;181.52;;;8.70;99.90;;;;;;5085108;28;20036;-79
2024/03/01 00:38:45;;;;;;;168.55;158.68;;;8.60;99.90;;;;;;5094909;28;20040;-80
2024/03/01 00:41:11;;;;;;;217.20;204.82;;;8.60;99.90;;;;;;5092600;28;20043;-80
2024/03/01 00:43:38;;;;;;;191.20;180.48;;;8.60;99.90;;;;;;5088823;28;20028;-80
2024/03/01 00:46:04;;;;;;;133.18;125.45;;;8.60;99.90;;;;;;5089321;28;20040;-80
2024/03/01 00:48:32;;;;;;;102.65;96.65;;;8.50;99.90;;;;;;5094729;28;20719;-80
2024/03/01 00:50:58;;;;;;;141.52;133.40;;;8.50;99.90;;;;;;5093858;28;20047;-79
2024/03/01 00:53:24;;;;;;;103.07;97.30;;;8.50;99.90;;;;;;5085783;28;20024;-79
2024/03/01 00:55:50;;;;;;;95.22;89.35;;;8.60;99.90;;;;;;5092982;28;20040;-80
2024/03/01 00:58:16;;;;;;;119.57;112.32;;;8.60;99.90;;;;;;5078289;28;20032;-80
2024/03/01 01:00:42;;;;;;;155.43;146.73;;;8.60;99.90;;;;;;5093140;28;20039;-80
2024/03/01 01:03:08;;;;;;;108.10;102.22;;;8.60;99.90;;;;;;5091701;28;20039;-80
2024/03/01 01:05:34;;;;;;;101.18;95.32;;;8.70;99.90;;;;;;5077292;28;20028;-79
2024/03/01 01:08:00;;;;;;;110.95;104.30;;;8.70;99.90;;;;;;5092575;28;20035;-80
2024/03/01 01:10:28;;;;;;;136.57;129.18;;;8.70;99.90;;;;;;5093454;28;20016;-80
2024/03/01 01:12:54;;;;;;;156.23;147.35;;;8.80;99.90;;;;;;5087455;28;20040;-79
2024/03/01 01:15:21;;;;;;;105.13;99.22;;;8.70;99.90;;;;;;5082194;28;20575;-80
2024/03/01 01:17:48;;;;;;;116.97;110.40;;;8.70;99.90;;;;;;5092829;28;20023;-80
2024/03/01 01:20:14;;;;;;;110.72;104.70;;;8.70;99.90;;;;;;5093592;28;20536;-80
2024/03/01 01:22:40;;;;;;;128.48;121.18;;;8.60;99.90;;;;;;5092231;28;20470;-80
2024/03/01 01:25:06;;;;;;;128.30;120.97;;;8.60;99.90;;;;;;5091951;28;20051;-79
2024/03/01 01:27:32;;;;;;;124.38;117.78;;;8.50;99.90;;;;;;5097834;28;20036;-80
2024/03/01 01:29:58;;;;;;;111.85;105.80;;;8.50;99.90;;;;;;5092483;28;20032;-80
2024/03/01 01:32:24;;;;;;;117.93;111.38;;;8.50;99.90;;;;;;5091624;28;20040;-80
2024/03/01 01:34:50;;;;;;;122.55;115.45;;;8.40;99.90;;;;;;5091709;28;20414;-73
2024/03/01 01:37:17;;;;;;;110.25;104.22;;;8.40;99.90;;;;;;5093402;28;20039;-73
2024/03/01 01:39:43;;;;;;;112.72;106.35;;;8.30;99.90;;;;;;5092959;28;20039;-73
2024/03/01 01:42:09;;;;;;;103.30;97.63;;;8.30;99.90;;;;;;5093475;28;20039;-73
2024/03/01 01:44:35;;;;;;;104.97;98.93;;;8.30;99.90;;;;;;5092540;28;20042;-74
2024/03/01 01:47:01;;;;;;;101.05;95.18;;;8.20;99.90;;;;;;5089720;28;20041;-73
2024/03/01 01:49:28;;;;;;;120.50;113.47;;;8.20;99.90;;;;;;5086680;28;20044;-74
2024/03/01 01:51:54;;;;;;;120.78;113.95;;;8.10;99.90;;;;;;5065269;28;20039;-73
2024/03/01 01:54:20;;;;;;;103.82;97.78;;;8.10;99.90;;;;;;5072580;28;20768;-73
2024/03/01 01:56:46;;;;;;;96.65;91.30;;;8.10;99.90;;;;;;5090877;28;20040;-73
2024/03/01 01:59:13;;;;;;;125.50;118.30;;;8.00;99.90;;;;;;5080948;28;20037;-73
2024/03/01 02:01:42;;;;;;;102.57;96.90;;;8.10;99.90;;;;;;5088476;28;20052;-74
2024/03/01 02:04:08;;;;;;;131.30;123.75;;;8.00;99.90;;;;;;5092986;28;20051;-73
2024/03/01 02:06:34;;;;;;;137.93;129.95;;;8.00;99.90;;;;;;5088885;28;20028;-74
2024/03/01 02:09:01;;;;;;;130.55;123.35;;;8.00;99.90;;;;;;5078242;28;20032;-73
2024/03/01 02:11:27;;;;;;;139.82;132.00;;;8.00;99.90;;;;;;5091311;28;20044;-73
2024/03/01 02:13:56;;;;;;;128.65;121.60;;;7.90;99.90;;;;;;5090965;28;20040;-73
2024/03/01 02:16:22;;;;;;;122.50;115.72;;;8.00;99.90;;;;;;5089292;28;20040;-73
2024/03/01 02:18:50;;;;;;;111.90;105.70;;;7.90;99.90;;;;;;5081754;28;20040;-73
2024/03/01 02:21:25;;;;;;;132.70;125.22;;;7.80;99.90;;;;;;5091544;28;20043;-73
2024/03/01 02:23:51;;;;;;;126.13;118.82;;;7.90;99.90;;;;;;5084175;28;20028;-73
2024/03/01 02:26:17;;;;;;;116.25;109.90;;;7.80;99.90;;;;;;5088528;28;20458;-73
2024/03/01 02:28:44;;;;;;;128.85;121.43;;;7.80;99.90;;;;;;5092037;28;20024;-73
2024/03/01 02:31:10;;;;;;;136.82;129.00;;;7.80;99.90;;;;;;5091317;28;20043;-73
2024/03/01 02:33:36;;;;;;;122.05;115.28;;;7.70;99.90;;;;;;5090494;28;20043;-73
2024/03/01 02:36:04;;;;;;;109.50;103.07;;;7.70;99.90;;;;;;5091742;28;20051;-73
2024/03/01 02:38:30;;;;;;;108.35;101.97;;;7.70;99.90;;;;;;5092871;28;20032;-83
2024/03/01 02:43:33;;;;;;;116.22;109.63;;;7.60;99.90;;;;;;4448081;23;20125;-71
2024/03/01 02:45:59;;;;;;;113.10;106.22;;;7.60;99.90;;;;;;5051343;28;20021;-72
2024/03/01 02:48:25;;;;;;;102.32;96.57;;;7.60;99.90;;;;;;5052271;28;20033;-71
2024/03/01 02:50:51;;;;;;;113.68;107.07;;;7.50;99.90;;;;;;5044869;28;20051;-71
2024/03/01 02:53:17;;;;;;;104.22;98.30;;;7.50;99.90;;;;;;5050846;28;20037;-72
2024/03/01 02:55:43;;;;;;;113.70;107.30;;;7.40;99.90;;;;;;5047964;28;20029;-72
2024/03/01 02:58:09;;;;;;;119.10;112.03;;;7.40;99.90;;;;;;5050702;28;20037;-73
2024/03/01 03:00:35;;;;;;;104.90;98.20;;;7.50;99.90;;;;;;5041002;28;20371;-74
2024/03/01 03:03:01;;;;;;;114.90;108.28;;;7.60;99.90;;;;;;5042937;28;20037;-74
2024/03/01 03:05:27;;;;;;;110.17;103.87;;;7.60;99.90;;;;;;5039936;28;20032;-74
2024/03/01 03:07:53;;;;;;;113.53;106.90;;;7.50;99.90;;;;;;5037074;28;20040;-74
2024/03/01 03:10:19;;;;;;;100.75;95.00;;;7.60;99.90;;;;;;5045045;28;20029;-74
2024/03/01 03:12:46;;;;;;;102.27;96.20;;;7.50;99.90;;;;;;5049899;28;20040;-74
2024/03/01 03:15:13;;;;;;;116.18;109.00;;;7.50;99.90;;;;;;5041168;28;20025;-74
2024/03/01 03:17:39;;;;;;;98.43;92.57;;;7.50;99.90;;;;;;5036147;28;20049;-74
2024/03/01 03:20:12;;;;;;;108.53;102.13;;;7.50;99.90;;;;;;5040401;28;20037;-75
2024/03/01 03:22:44;;;;;;;113.18;106.72;;;7.50;99.90;;;;;;5050845;28;20029;-74
2024/03/01 03:25:13;;;;;;;93.07;87.45;;;7.40;99.90;;;;;;5036703;28;20041;-74
2024/03/01 03:27:40;;;;;;;91.17;85.63;;;7.50;99.90;;;;;;5028279;28;20050;-74
2024/03/01 03:30:07;;;;;;;91.20;85.57;;;7.40;99.90;;;;;;5038017;28;20021;-72
2024/03/01 03:32:33;;;;;;;93.82;88.00;;;7.40;99.90;;;;;;5041180;28;20497;-74
2024/03/01 03:34:59;;;;;;;100.78;94.47;;;7.40;99.90;;;;;;5049739;28;20048;-74
2024/03/01 03:37:26;;;;;;;98.28;91.93;;;7.30;99.90;;;;;;5050116;28;20041;-74
2024/03/01 03:39:52;;;;;;;96.90;91.30;;;7.30;99.90;;;;;;5037652;28;20398;-74
2024/03/01 03:42:18;;;;;;;99.75;93.68;;;7.30;99.90;;;;;;5047742;28;20041;-74
2024/03/01 03:44:44;;;;;;;99.15;93.30;;;7.30;99.90;;;;;;5050436;28;20374;-74
2024/03/01 03:47:10;;;;;;;104.40;97.90;;;7.40;99.90;;;;;;5049575;28;20037;-74
2024/03/01 03:49:36;;;;;;;136.13;128.33;;;7.40;99.90;;;;;;5051677;28;20417;-74
2024/03/01 03:52:03;;;;;;;105.13;99.00;;;7.40;99.90;;;;;;5036013;28;20048;-73
2024/03/01 03:54:30;;;;;;;114.85;107.78;;;7.30;99.90;;;;;;5030329;28;20034;-73
2024/03/01 03:56:56;;;;;;;80.10;74.82;;;7.30;99.90;;;;;;5049580;28;20037;-73
2024/03/01 03:59:23;;;;;;;97.43;91.50;;;7.30;99.90;;;;;;5054794;28;20029;-73
2024/03/01 04:01:49;;;;;;;130.45;122.28;;;7.40;99.90;;;;;;5053160;28;20056;-74
2024/03/01 04:04:15;;;;;;;129.20;121.90;;;7.40;99.90;;;;;;5054273;28;20033;-74
2024/03/01 04:06:41;;;;;;;129.45;122.13;;;7.40;99.90;;;;;;5054336;28;20033;-74
2024/03/01 04:09:10;;;;;;;124.35;117.32;;;7.40;99.90;;;;;;5054539;28;20025;-73
2024/03/01 04:11:36;;;;;;;97.65;92.18;;;7.40;99.90;;;;;;5055044;28;20052;-73
2024/03/01 04:14:02;;;;;;;120.28;113.30;;;7.40;99.90;;;;;;5033952;28;20430;-73
2024/03/01 04:16:31;;;;;;;112.63;106.03;;;7.40;99.90;;;;;;5045134;28;20048;-73
2024/03/01 04:18:57;;;;;;;96.87;91.23;;;7.40;99.90;;;;;;5053063;28;20088;-74
2024/03/01 04:21:24;;;;;;;95.53;89.63;;;7.40;99.90;;;;;;5054763;28;20490;-73
2024/03/01 04:23:50;;;;;;;85.10;80.00;;;7.40;99.90;;;;;;5053764;28;20029;-73
2024/03/01 04:26:16;;;;;;;86.70;81.50;;;7.40;99.90;;;;;;5048240;28;20045;-73
2024/03/01 04:28:42;;;;;;;113.55;106.60;;;7.30;99.90;;;;;;5055056;28;20029;-74
2024/03/01 04:31:08;;;;;;;122.73;115.37;;;7.40;99.90;;;;;;5052431;28;20037;-74
2024/03/01 04:33:37;;;;;;;107.30;100.30;;;7.30;99.90;;;;;;5054614;28;20033;-74
2024/03/01 04:36:04;;;;;;;92.63;86.70;;;7.30;99.90;;;;;;5053791;28;20043;-73
2024/03/01 04:38:30;;;;;;;98.60;92.80;;;7.30;99.90;;;;;;5034674;28;20025;-73
2024/03/01 04:40:56;;;;;;;94.85;88.88;;;7.30;99.90;;;;;;5040640;28;20390;-73
2024/03/01 04:43:22;;;;;;;98.97;92.87;;;7.30;99.90;;;;;;5043943;28;20113;-73
2024/03/01 04:45:49;;;;;;;88.27;82.90;;;7.30;99.90;;;;;;5039119;28;20413;-74
2024/03/01 04:48:15;;;;;;;97.88;91.60;;;7.30;99.90;;;;;;5053819;28;20033;-74
2024/03/01 04:50:42;;;;;;;93.43;87.80;;;7.30;99.90;;;;;;5050148;28;20040;-74
2024/03/01 04:53:08;;;;;;;96.70;90.87;;;7.30;99.90;;;;;;5034177;28;20033;-73
2024/03/01 04:55:34;;;;;;;85.93;80.43;;;7.30;99.90;;;;;;5052112;28;20036;-73
2024/03/01 04:58:00;;;;;;;90.97;85.47;;;7.30;99.90;;;;;;5050514;28;21192;-74
2024/03/01 05:00:26;;;;;;;96.65;90.18;;;7.30;99.90;;;;;;5040038;28;20037;-74
2024/03/01 05:02:54;;;;;;;97.80;91.57;;;7.30;99.90;;;;;;5053545;28;20036;-73
2024/03/01 05:05:22;;;;;;;101.20;94.57;;;7.30;99.90;;;;;;5053186;28;20051;-74
2024/03/01 05:07:48;;;;;;;95.25;89.07;;;7.30;99.90;;;;;;5052185;28;20037;-73
2024/03/01 05:10:21;;;;;;;84.90;79.80;;;7.30;99.90;;;;;;5053062;28;20033;-74
2024/03/01 05:12:47;;;;;;;88.57;82.82;;;7.40;99.90;;;;;;5053403;28;20033;-73
2024/03/01 05:15:15;;;;;;;99.13;93.03;;;7.40;99.90;;;;;;5048840;28;20479;-74
2024/03/01 05:17:42;;;;;;;94.63;88.77;;;7.40;99.90;;;;;;5054091;28;20061;-74
2024/03/01 05:20:11;;;;;;;108.88;102.18;;;7.50;99.90;;;;;;5050927;28;20036;-73
2024/03/01 05:22:38;;;;;;;117.97;111.03;;;7.50;99.90;;;;;;5032080;28;20025;-73
2024/03/01 05:25:17;;;;;;;114.80;107.80;;;7.50;99.90;;;;;;5043667;28;20041;-74
2024/03/01 05:27:50;;;;;;;118.32;111.45;;;7.50;99.90;;;;;;5047215;28;20049;-73
2024/03/01 05:30:19;;;;;;;121.22;113.45;;;7.60;99.90;;;;;;5051504;28;20048;-73
2024/03/01 05:32:46;;;;;;;133.25;125.80;;;7.60;99.90;;;;;;5052909;28;20029;-73
2024/03/01 05:35:13;;;;;;;120.75;113.35;;;7.60;99.90;;;;;;5040979;28;20037;-73
2024/03/01 05:37:43;;;;;;;115.30;108.57;;;7.70;99.90;;;;;;5038169;28;20046;-73
2024/03/01 05:40:14;;;;;;;118.90;111.88;;;7.70;99.90;;;;;;5033697;28;20048;-74
2024/03/01 05:42:44;;;;;;;133.85;125.40;;;7.70;99.90;;;;;;5035704;28;20033;-73
2024/03/01 05:45:11;;;;;;;129.35;121.72;;;7.80;99.90;;;;;;5052508;28;20024;-74
2024/03/01 05:47:42;;;;;;;106.72;100.55;;;7.90;99.90;;;;;;5052550;28;20382;-73
2024/03/01 05:50:09;;;;;;;121.45;114.45;;;7.90;99.90;;;;;;5053173;28;20032;-74
2024/03/01 05:52:36;;;;;;;143.02;134.15;;;8.00;99.90;;;;;;5050848;28;20021;-74
2024/03/01 05:55:08;;;;;;;117.43;110.45;;;8.00;99.90;;;;;;5044235;28;20037;-74
2024/03/01 05:57:34;;;;;;;133.35;125.38;;;8.00;99.90;;;;;;5031014;28;20053;-73
2024/03/01 06:00:09;;;;;;;127.30;120.15;;;8.00;99.90;;;;;;5032078;28;20025;-73
2024/03/01 06:02:36;;;;;;;162.63;153.05;;;8.00;99.90;;;;;;5031998;28;20041;-73
2024/03/01 06:05:03;;;;;;;115.65;108.70;;;8.10;99.90;;;;;;5044181;28;20025;-73
2024/03/01 06:07:29;;;;;;;133.25;125.47;;;8.10;99.90;;;;;;5050874;28;20032;-73
2024/03/01 06:09:55;;;;;;;130.45;122.32;;;8.20;99.90;;;;;;5051062;28;20025;-73
2024/03/01 06:12:21;;;;;;;138.48;130.30;;;8.20;99.90;;;;;;5052185;28;20036;-73
2024/03/01 06:14:47;;;;;;;155.30;145.55;;;8.20;99.90;;;;;;5052720;28;20379;-74
2024/03/01 06:17:14;;;;;;;147.88;138.70;;;8.30;99.90;;;;;;5039660;28;20048;-73
2024/03/01 06:19:40;;;;;;;128.57;121.00;;;8.30;99.90;;;;;;5038284;28;20045;-73
2024/03/01 06:22:06;;;;;;;139.48;131.55;;;8.40;99.90;;;;;;5045358;28;20033;-74
2024/03/01 06:24:32;;;;;;;141.18;133.43;;;8.40;99.90;;;;;;5045410;28;20029;-73
2024/03/01 06:26:58;;;;;;;131.90;124.15;;;8.50;99.90;;;;;;5052592;28;20025;-73
2024/03/01 06:29:25;;;;;;;157.15;148.07;;;8.50;99.90;;;;;;5052786;28;20028;-73
2024/03/01 06:31:51;;;;;;;131.05;122.95;;;8.50;99.90;;;;;;5051508;28;20037;-73
2024/03/01 06:34:17;;;;;;;171.80;160.70;;;8.60;99.90;;;;;;5052345;28;20032;-73
2024/03/01 06:36:43;;;;;;;165.43;155.25;;;8.60;99.90;;;;;;5052138;28;20048;-72
2024/03/01 06:39:10;;;;;;;167.50;157.63;;;8.60;99.90;;;;;;5052461;28;20403;-72
2024/03/01 06:41:36;;;;;;;160.23;150.48;;;8.70;99.90;;;;;;5051943;28;20382;-73
2024/03/01 06:44:03;;;;;;;154.30;144.57;;;8.70;99.90;;;;;;5044430;28;20049;-72
2024/03/01 06:46:29;;;;;;;152.35;142.50;;;8.80;99.90;;;;;;5051253;28;20147;-73
2024/03/01 06:48:55;;;;;;;161.75;151.57;;;8.80;99.90;;;;;;5052045;28;20514;-73
2024/03/01 06:51:22;;;;;;;171.70;161.10;;;8.90;99.90;;;;;;5051014;28;20391;-73
2024/03/01 06:53:48;;;;;;;230.93;215.18;;;9.00;99.90;;;;;;5046130;28;20029;-73
2024/03/01 06:56:14;;;;;;;158.18;147.52;;;9.00;99.90;;;;;;5031845;28;20037;-72
2024/03/01 06:58:40;;;;;;;124.82;116.13;;;9.10;99.90;;;;;;5032007;28;20044;-72
2024/03/01 07:01:07;;;;;;;195.65;183.00;;;9.10;99.90;;;;;;5030699;28;20036;-72
2024/03/01 07:03:33;;;;;;;166.95;156.13;;;9.10;99.90;;;;;;5038248;28;20494;-73
2024/03/01 07:05:59;;;;;;;133.50;125.18;;;9.10;99.90;;;;;;5038790;28;20361;-72
2024/03/01 07:08:25;;;;;;;132.88;123.82;;;9.00;99.90;;;;;;5032218;28;20038;-73
2024/03/01 07:10:52;;;;;;;145.57;135.88;;;9.10;99.90;;;;;;5049308;28;20475;-73
2024/03/01 07:13:18;;;;;;;160.77;150.15;;;9.10;99.90;;;;;;5052056;28;20025;-73
2024/03/01 07:15:44;;;;;;;146.13;135.85;;;9.10;99.90;;;;;;5051421;28;20040;-73
2024/03/01 07:18:11;;;;;;;183.13;171.50;;;9.10;99.90;;;;;;5046136;28;20045;-73
2024/03/01 07:20:37;;;;;;;162.85;151.77;;;9.10;99.90;;;;;;5051618;28;20033;-73
2024/03/01 07:23:03;;;;;;;167.45;156.60;;;9.10;99.90;;;;;;5051786;28;20052;-73
2024/03/01 07:25:29;;;;;;;200.20;186.75;;;9.10;99.90;;;;;;5051655;28;20062;-73
2024/03/01 07:27:55;;;;;;;195.38;182.65;;;9.20;99.90;;;;;;5050363;28;20510;-73
2024/03/01 07:30:21;;;;;;;169.77;158.70;;;9.20;99.90;;;;;;5052237;28;20036;-74
2024/03/01 07:32:47;;;;;;;158.77;148.02;;;9.20;99.90;;;;;;5043796;28;20021;-73
2024/03/01 07:35:14;;;;;;;133.68;123.95;;;9.30;99.90;;;;;;5035970;28;20026;-74
2024/03/01 07:37:40;;;;;;;205.15;191.82;;;9.40;99.90;;;;;;5045273;28;20057;-73
2024/03/01 07:40:07;;;;;;;118.60;110.60;;;9.40;99.90;;;;;;5035886;28;20097;-73
2024/03/01 07:42:33;;;;;;;195.90;182.70;;;9.40;99.90;;;;;;5038563;28;20052;-73
2024/03/01 07:44:59;;;;;;;182.35;169.98;;;9.50;99.90;;;;;;5035785;28;20040;-73
2024/03/01 07:47:29;;;;;;;203.50;188.82;;;9.50;99.90;;;;;;5053097;28;20033;-73
2024/03/01 07:49:56;;;;;;;169.73;158.18;;;9.50;99.90;;;;;;5038066;28;20021;-73
2024/03/01 07:52:22;;;;;;;170.38;158.32;;;9.50;99.90;;;;;;5054105;28;20029;-73
2024/03/01 07:54:48;;;;;;;212.05;197.20;;;9.50;99.90;;;;;;5048913;28;20026;-73
2024/03/01 07:57:15;;;;;;;183.80;170.57;;;9.50;99.90;;;;;;5044148;28;20037;-73
2024/03/01 07:59:41;;;;;;;209.82;194.82;;;9.60;99.90;;;;;;5054610;28;20032;-73
2024/03/01 08:02:08;;;;;;;154.95;144.13;;;9.60;99.90;;;;;;5054243;28;20040;-73
2024/03/01 08:04:35;;;;;;;169.95;157.50;;;9.70;99.90;;;;;;5054239;28;20379;-73
2024/03/01 08:07:02;;;;;;;169.52;158.18;;;9.70;99.90;;;;;;5053709;28;20029;-73
2024/03/01 08:09:32;;;;;;;195.77;182.45;;;9.70;99.90;;;;;;5055363;28;20048;-73
2024/03/01 08:11:58;;;;;;;176.20;163.73;;;9.80;99.90;;;;;;5055106;28;20435;-73
2024/03/01 08:14:30;;;;;;;165.27;154.23;;;9.80;99.90;;;;;;5055178;28;20047;-72
2024/03/01 08:16:56;;;;;;;186.07;172.77;;;9.80;99.90;;;;;;5043279;28;20069;-74
2024/03/01 08:19:44;;;;;;;229.18;212.52;;;9.90;99.90;;;;;;5036044;28;20479;-72
2024/03/01 08:22:14;;;;;;;172.73;160.57;;;9.90;99.90;;;;;;5044551;28;20044;-72
2024/03/01 08:24:46;;;;;;;163.05;152.05;;;9.90;99.90;;;;;;5043624;28;20021;-73
2024/03/01 08:27:25;;;;;;;149.27;138.57;;;9.90;99.90;;;;;;5052792;28;20394;-73
2024/03/01 08:29:51;;;;;;;202.63;189.35;;;9.90;99.90;;;;;;5046755;28;20044;-74
2024/03/01 08:32:26;;;;;;;167.73;156.63;;;9.90;99.90;;;;;;5038111;28;20058;-75
2024/03/01 08:34:55;;;;;;;158.98;148.90;;;9.90;99.90;;;;;;5036255;28;20395;-74
2024/03/01 08:37:23;;;;;;;186.30;173.75;;;9.90;99.90;;;;;;5046838;28;20379;-74
2024/03/01 08:39:53;;;;;;;164.65;153.65;;;9.90;99.90;;;;;;5033356;28;20049;-76
2024/03/01 08:42:20;;;;;;;172.10;160.35;;;9.90;99.90;;;;;;5030372;28;20048;-74
2024/03/01 08:44:59;;;;;;;186.88;174.27;;;10.00;99.90;;;;;;5033967;28;20378;-74
2024/03/01 08:47:34;;;;;;;166.30;154.55;;;10.00;99.90;;;;;;5049458;28;20111;-74
2024/03/01 08:50:19;;;;;;;165.82;154.77;;;9.90;99.90;;;;;;5052658;28;20028;-74
2024/03/01 08:52:45;;;;;;;225.40;210.48;;;10.00;99.90;;;;;;5043796;28;20033;-75
2024/03/01 08:55:17;;;;;;;199.65;185.73;;;10.00;99.90;;;;;;5038253;28;20028;-75
2024/03/01 08:57:49;;;;;;;223.27;209.02;;;9.90;99.90;;;;;;5049878;28;20041;-75
2024/03/01 09:00:27;;;;;;;138.57;129.75;;;9.80;99.90;;;;;;5049547;28;20040;-74
2024/03/01 09:02:53;;;;;;;160.00;149.88;;;9.80;99.90;;;;;;5042613;28;20021;-75
2024/03/01 09:05:22;;;;;;;173.38;162.57;;;9.80;99.90;;;;;;5034814;28;20026;-75
2024/03/01 09:07:51;;;;;;;135.63;127.03;;;9.70;99.90;;;;;;5053836;28;20044;-75
2024/03/01 09:10:25;;;;;;;151.45;142.18;;;9.70;99.90;;;;;;5052418;28;20032;-75
2024/03/01 09:12:51;;;;;;;168.25;157.57;;;9.70;99.90;;;;;;5053939;28;20379;-75
2024/03/01 09:15:21;;;;;;;125.72;117.68;;;9.70;99.90;;;;;;5047520;28;20032;-75
2024/03/01 09:17:47;;;;;;;147.93;138.70;;;9.80;99.90;;;;;;5050511;28;20060;-74
2024/03/01 09:20:39;;;;;;;128.73;120.45;;;9.80;99.90;;;;;;5049602;28;20034;-75
2024/03/01 09:23:07;;;;;;;135.15;126.90;;;9.80;99.90;;;;;;5033581;28;20033;-75
2024/03/01 09:25:48;;;;;;;101.28;94.38;;;9.80;99.90;;;;;;5036706;28;20029;-75
2024/03/01 09:28:20;;;;;;;113.40;106.15;;;9.80;99.90;;;;;;5053472;28;20044;-74
2024/03/01 09:30:47;;;;;;;102.55;95.70;;;9.90;99.90;;;;;;5048577;28;20021;-75
2024/03/01 09:33:15;;;;;;;112.20;105.10;;;9.90;99.90;;;;;;5044139;28;20025;-74
2024/03/01 09:35:44;;;;;;;103.10;96.10;;;10.00;99.90;;;;;;5037876;28;20022;-75
2024/03/01 09:38:12;;;;;;;95.82;88.93;;;10.00;99.90;;;;;;5036464;28;20395;-75
2024/03/01 09:40:47;;;;;;;122.93;115.40;;;10.10;99.90;;;;;;5051573;28;20021;-75
2024/03/01 09:43:25;;;;;;;123.13;115.03;;;10.10;99.90;;;;;;5040621;28;20422;-74
2024/03/01 09:45:55;;;;;;;139.40;130.30;;;10.10;99.90;;;;;;5043854;28;20509;-74
2024/03/01 09:48:57;;;;;;;120.00;111.90;;;10.10;99.90;;;;;;5052099;28;20032;-74
2024/03/01 09:51:32;;;;;;;;;;;10.10;99.90;;;;;;5038535;28;20498;-74
2024/03/01 09:54:05;;;;;;;151.73;142.35;;;10.00;99.90;;;;;;5032388;28;20279;-74
2024/03/01 09:56:59;;;;;;;133.38;125.32;;;10.00;99.90;;;;;;5044197;28;20024;-74
2024/03/01 09:59:46;;;;;;;161.23;150.80;;;10.00;99.90;;;;;;5052931;28;20499;-74
2024/03/01 10:02:20;;;;;;;125.93;117.72;;;9.90;99.90;;;;;;5041581;28;20037;-74
2024/03/01 10:05:09;;;;;;;120.68;112.82;;;9.90;99.90;;;;;;5041545;28;20032;-74
2024/03/01 10:08:00;;;;;;;129.43;120.68;;;9.90;99.90;;;;;;5036552;28;20044;-74
2024/03/01 10:10:41;;;;;;;181.82;169.10;;;9.90;99.90;;;;;;5050634;28;20033;-73
2024/03/01 10:13:22;;;;;;;153.23;142.93;;;10.00;99.90;;;;;;5035361;28;20052;-73
2024/03/01 10:15:52;;;;;;;146.38;136.63;;;10.00;99.90;;;;;;5037192;28;20391;-73
2024/03/01 10:18:30;;;;;;;142.88;133.38;;;10.00;99.90;;;;;;5047975;28;20387;-72
2024/03/01 10:21:22;;;;;;;121.47;114.00;;;10.10;99.90;;;;;;5042099;28;20032;-73
2024/03/01 10:23:57;;;;;;;156.40;145.85;;;10.30;99.90;;;;;;5039632;28;20021;-73
2024/03/01 10:26:27;;;;;;;97.60;91.22;;;10.40;99.90;;;;;;5033614;28;20037;-73
2024/03/01 10:29:20;;;;;;;104.82;98.22;;;10.60;99.90;;;;;;5032855;28;20383;-73
2024/03/01 10:32:18;;;;;;;157.15;147.70;;;10.70;99.90;;;;;;5045590;28;20025;-73
2024/03/01 10:35:09;;;;;;;193.55;181.13;;;10.80;99.90;;;;;;5042317;28;20040;-73
2024/03/01 10:37:53;;;;;;;181.32;169.98;;;10.80;99.90;;;;;;5040399;28;20499;-74
2024/03/01 10:40:19;;;;;;;157.80;147.43;;;10.80;99.90;;;;;;5045242;28;20037;-74
2024/03/01 10:43:10;;;;;;;159.15;148.85;;;10.80;99.90;;;;;;5050543;28;20045;-74
2024/03/01 10:45:55;;;;;;;162.52;152.07;;;10.70;99.90;;;;;;5050264;28;20049;-73
2024/03/01 10:48:21;;;;;;;160.60;150.20;;;10.70;99.90;;;;;;5022698;28;20045;-74
2024/03/01 10:50:54;;;;;;;168.45;157.10;;;10.70;99.90;;;;;;5038322;28;20033;-74
2024/03/01 10:53:33;;;;;;;148.77;139.05;;;10.60;99.90;;;;;;5051085;28;20482;-74
2024/03/01 10:56:06;;;;;;;174.82;163.73;;;10.70;99.90;;;;;;5044876;28;20037;-73
2024/03/01 10:58:38;;;;;;;149.00;139.50;;;10.80;99.90;;;;;;5037631;28;20057;-73
2024/03/01 11:01:22;;;;;;;150.93;141.50;;;10.90;99.90;;;;;;5041399;28;20044;-74
2024/03/01 11:03:58;;;;;;;122.40;114.60;;;10.90;99.90;;;;;;5047900;28;20509;-73
2024/03/01 11:06:46;;;;;;;142.48;133.68;;;11.00;99.90;;;;;;5039820;28;20032;-73
2024/03/01 11:09:31;;;;;;;127.38;119.78;;;11.00;99.90;;;;;;5042466;28;20036;-74
2024/03/01 11:12:08;;;;;;;123.88;116.07;;;11.10;99.90;;;;;;5036982;28;20047;-73
2024/03/01 11:14:35;;;;;;;140.68;132.05;;;11.10;99.90;;;;;;5033954;28;20036;-74
2024/03/01 11:17:01;;;;;;;231.82;217.52;;;11.20;99.90;;;;;;5044126;28;20045;-74
2024/03/01 11:19:28;;;;;;;211.63;199.25;;;11.30;99.90;;;;;;5050935;28;20486;-73
2024/03/01 11:22:24;;;;;;;161.73;152.32;;;11.40;99.90;;;;;;5030697;28;20683;-73
2024/03/01 11:25:04;;;;;;;142.02;133.68;;;11.50;99.90;;;;;;5049891;28;20029;-74
2024/03/01 11:27:31;;;;;;;215.15;202.75;;;11.60;99.90;;;;;;5037971;28;20033;-74
2024/03/01 11:30:05;;;;;;;193.18;182.00;;;11.70;99.90;;;;;;5031884;28;20029;-74
2024/03/01 11:32:33;;;;;;;215.82;203.07;;;11.80;99.90;;;;;;5049548;28;20037;-74
2024/03/01 11:35:12;;;;;;;399.33;374.20;;;11.90;99.90;;;;;;5046862;28;20040;-74
2024/03/01 11:37:45;;;;;;;292.98;276.05;;;11.90;99.90;;;;;;5034523;28;20037;-74
2024/03/01 11:40:50;;;;;;;351.05;328.25;;;11.90;99.90;;;;;;5050621;28;20029;-74
2024/03/01 11:43:45;;;;;;;409.35;383.70;;;12.10;99.90;;;;;;5043038;28;20415;-74
2024/03/01 11:46:31;;;;;;;280.80;265.30;;;12.30;99.90;;;;;;5047730;28;20072;-73
2024/03/01 11:49:09;;;;;;;222.73;210.30;;;12.40;99.90;;;;;;5043988;28;20033;-73
2024/03/01 11:51:41;;;;;;;723.38;461.27;;;12.50;99.90;;;;;;5042564;28;20043;-73
2024/03/01 11:54:25;;;;;;;1999.90;999.90;;;12.50;99.90;;;;;;5037101;28;20484;-74
2024/03/01 11:57:06;;;;;;;1999.90;999.90;;;12.70;99.90;;;;;;5043998;28;20029;-73
2024/03/01 11:59:48;;;;;;;1999.90;999.90;;;12.80;99.90;;;;;;5042666;28;20042;-73
2024/03/01 12:02:26;;;;;;;1999.90;999.90;;;12.80;99.90;;;;;;5034952;28;20491;-73
2024/03/01 12:05:12;;;;;;;1999.90;999.90;;;12.90;99.90;;;;;;5047464;28;20033;-73
2024/03/01 12:07:40;;;;;;;1999.90;999.90;;;12.80;99.90;;;;;;5036003;28;21390;-73
2024/03/01 12:10:36;;;;;;;1999.90;999.90;;;12.70;99.90;;;;;;5030228;28;20030;-74
2024/03/01 12:13:08;;;;;;;1999.90;999.90;;;12.60;99.90;;;;;;5048746;28;20020;-73
2024/03/01 12:15:37;;;;;;;1999.90;999.90;;;12.70;99.90;;;;;;5048928;28;20028;-73
2024/03/01 12:18:40;;;;;;;1999.90;999.90;;;12.70;99.90;;;;;;5051802;28;20052;-73
2024/03/01 12:21:12;;;;;;;1999.90;999.90;;;12.60;99.90;;;;;;5052360;28;20031;-73
2024/03/01 12:23:41;;;;;;;1999.90;999.90;;;12.60;99.90;;;;;;5039803;28;20029;-73
2024/03/01 12:26:08;;;;;;;1999.90;999.90;;;12.60;99.90;;;;;;5041984;28;20645;-73
2024/03/01 12:28:39;;;;;;;1999.90;999.90;;;12.60;99.90;;;;;;5053468;28;20029;-73
2024/03/01 12:31:34;;;;;;;1999.90;999.90;;;12.50;99.90;;;;;;5051367;28;20045;-73
2024/03/01 12:34:19;;;;;;;1999.90;999.90;;;12.60;99.90;;;;;;5042072;28;20045;-73
2024/03/01 12:37:20;;;;;;;1999.90;999.90;;;12.50;99.90;;;;;;5046855;28;20040;-73